North Pole, AK (99705)

2:54 AM AKDT on September 15, 2014 (GMT -0800)
Brookside Subdivision Jim-Tom | Change Station
CLOSE
Current Station
Personal Weather Station
Location: North Pole, AK
Elevation: 482 ft
Nearby Weather Stations

Elev 482 ft 64.76 °N, 147.33 °W | Updated 2 seconds ago

Clear
Clear
42.5 °F
Feels Like 42 °F
N
0.0
Wind Variable Wind from East
Gusts 0.0 mph

Today
High -- | Low -- °F
--% Chance of Precip.
Yesterday
High -- | Low -- °F
Precip. -- in
7:12 AM 8:15 PM
Waning Gibbous, 56% visible
Pressure 29.55 in
Visibility 10.0 miles
Clouds Clear
Windchill 42 °F
Dew Point 39 °F
Humidity 88%
Rainfall 0.00 in
Snow Depth 2 in , 1 in , 0 in
UV 0 out of 12
Pollen Not available.
Air Quality Not available.
Flu Activity Not available.
METAR PAFB 150956Z AUTO 00000KT 10SM CLR 12/04 A2955 RMK SLP006 T01220039 VIA AUTODIAL

More Conditions Fewer Conditions

Pressure 29.55 in
Visibility 10.0 miles
Clouds Clear
Windchill 42 °F
Dew Point 39 °F
Humidity 88%
Rainfall 0.00 in
Snow Depth 2 in , 1 in , 0 in
UV 0 out of 12
Pollen Not available.
Air Quality Not available.
Flu Activity Not available.
METAR PAFB 150956Z AUTO 00000KT 10SM CLR 12/04 A2955 RMK SLP006 T01220039 VIA AUTODIAL

More Conditions Fewer Conditions

10-Day Weather Forecast

Almanac

Astronomy

Sep. 15, 2014 Rise Set
Actual Time 7:12 AM AKDT 8:15 PM AKDT
Civil Twilight 6:22 AM AKDT 9:05 PM AKDT
Nautical Twilight 5:18 AM AKDT 10:08 PM AKDT
Astronomical Twilight 3:58 AM AKDT 11:26 PM AKDT
Moon 10:49 PM AKDT 4:39 PM AKDT
Length of Visible Light 14h 43m
Length of Day
13h 03m
Tomorrow will be 6m 37s shorter.
Waning Gibbous, 56% of the Moon is Illuminated
Today
Waning Gibbous
Sep 15
Last Quarter
Sep 24
New
Oct 1
First Quarter
Oct 8
Full

Today's Extremes

State Highs State Lows

Community

WunderPhotos

Upload Photos

1,753,428 photos uploaded!

Nearby

Snow Depth

Station Depth Elevation
Long Lake 0 in 820 ft
Indian Pass 2 in 2300 ft
Upper Tsaina River 0 in 1750 ft
Upper Chena 1 in 2850 ft
Turnagain Pass 2 in 1880 ft

Earthquake Activity

City Distance Mag. Time & Date
No recent earthquake activity has been reported nearby.
Minimum magnitude displayed is 2.5.

Coastal Water Temperatures

Place Temperature
No Stations Reporting

Nearby Weather Stations